sensor_id;sensor_type;location;lat;lon;timestamp;temperature;humidity
10911;DHT22;5508;49.150;11.030;2024-02-28T00:01:23;4.10;99.90
10911;DHT22;5508;49.150;11.030;2024-02-28T00:04:24;4.10;99.90
10911;DHT22;5508;49.150;11.030;2024-02-28T00:07:24;4.00;99.90
10911;DHT22;5508;49.150;11.030;2024-02-28T00:10:25;4.00;99.90
10911;DHT22;5508;49.150;11.030;2024-02-28T00:13:25;4.00;99.90
10911;DHT22;5508;49.150;11.030;2024-02-28T00:16:26;4.00;99.90
10911;DHT22;5508;49.150;11.030;2024-02-28T00:19:27;3.90;99.90
10911;DHT22;5508;49.150;11.030;2024-02-28T00:22:27;3.90;99.90
10911;DHT22;5508;49.150;11.030;2024-02-28T00:25:28;4.00;99.90
10911;DHT22;5508;49.150;11.030;2024-02-28T00:28:28;3.90;99.90
10911;DHT22;5508;49.150;11.030;2024-02-28T00:31:29;3.90;99.90
10911;DHT22;5508;49.150;11.030;2024-02-28T00:34:29;3.90;99.90
10911;DHT22;5508;49.150;11.030;2024-02-28T00:37:30;3.90;99.90
10911;DHT22;5508;49.150;11.030;2024-02-28T00:40:31;3.90;99.90
10911;DHT22;5508;49.150;11.030;2024-02-28T00:43:31;3.80;99.90
10911;DHT22;5508;49.150;11.030;2024-02-28T00:46:32;3.80;99.90
10911;DHT22;5508;49.150;11.030;2024-02-28T00:49:32;3.80;99.90
10911;DHT22;5508;49.150;11.030;2024-02-28T00:52:33;3.80;99.90
10911;DHT22;5508;49.150;11.030;2024-02-28T00:55:34;3.80;99.90
10911;DHT22;5508;49.150;11.030;2024-02-28T00:58:34;3.70;99.90
10911;DHT22;5508;49.150;11.030;2024-02-28T01:01:35;3.80;99.90
10911;DHT22;5508;49.150;11.030;2024-02-28T01:04:35;3.70;99.90
10911;DHT22;5508;49.150;11.030;2024-02-28T01:07:36;3.70;99.90
10911;DHT22;5508;49.150;11.030;2024-02-28T01:10:36;3.70;99.90
10911;DHT22;5508;49.150;11.030;2024-02-28T01:13:38;3.70;99.90
10911;DHT22;5508;49.150;11.030;2024-02-28T01:16:39;3.70;99.90
10911;DHT22;5508;49.150;11.030;2024-02-28T01:19:39;3.80;99.90
10911;DHT22;5508;49.150;11.030;2024-02-28T01:22:40;3.80;99.90
10911;DHT22;5508;49.150;11.030;2024-02-28T01:25:40;3.80;99.90
10911;DHT22;5508;49.150;11.030;2024-02-28T01:28:41;3.80;99.90
10911;DHT22;5508;49.150;11.030;2024-02-28T01:31:43;3.80;99.90
10911;DHT22;5508;49.150;11.030;2024-02-28T01:34:44;3.70;99.90
10911;DHT22;5508;49.150;11.030;2024-02-28T01:37:44;3.70;99.90
10911;DHT22;5508;49.150;11.030;2024-02-28T01:40:45;3.70;99.90
10911;DHT22;5508;49.150;11.030;2024-02-28T01:43:46;3.70;99.90
10911;DHT22;5508;49.150;11.030;2024-02-28T01:46:47;3.60;99.90
10911;DHT22;5508;49.150;11.030;2024-02-28T01:49:48;3.60;99.90
10911;DHT22;5508;49.150;11.030;2024-02-28T01:52:51;3.60;99.90
10911;DHT22;5508;49.150;11.030;2024-02-28T01:55:51;3.70;99.90
10911;DHT22;5508;49.150;11.030;2024-02-28T01:58:54;3.60;99.90
10911;DHT22;5508;49.150;11.030;2024-02-28T02:01:55;3.70;99.90
10911;DHT22;5508;49.150;11.030;2024-02-28T02:04:55;3.70;99.90
10911;DHT22;5508;49.150;11.030;2024-02-28T02:07:58;3.70;99.90
10911;DHT22;5508;49.150;11.030;2024-02-28T02:11:00;3.70;99.90
10911;DHT22;5508;49.150;11.030;2024-02-28T02:14:00;3.70;99.90
10911;DHT22;5508;49.150;11.030;2024-02-28T02:17:01;3.60;99.90
10911;DHT22;5508;49.150;11.030;2024-02-28T02:20:02;3.60;99.90
10911;DHT22;5508;49.150;11.030;2024-02-28T02:23:04;3.70;99.90
10911;DHT22;5508;49.150;11.030;2024-02-28T02:26:05;3.70;99.90
10911;DHT22;5508;49.150;11.030;2024-02-28T02:29:05;3.70;99.90
10911;DHT22;5508;49.150;11.030;2024-02-28T02:32:06;3.70;99.90
10911;DHT22;5508;49.150;11.030;2024-02-28T02:35:07;3.70;99.90
10911;DHT22;5508;49.150;11.030;2024-02-28T02:38:07;3.70;99.90
10911;DHT22;5508;49.150;11.030;2024-02-28T02:41:08;3.70;99.90
10911;DHT22;5508;49.150;11.030;2024-02-28T02:44:09;3.70;99.90
10911;DHT22;5508;49.150;11.030;2024-02-28T02:47:09;3.70;99.90
10911;DHT22;5508;49.150;11.030;2024-02-28T02:50:10;3.60;99.90
10911;DHT22;5508;49.150;11.030;2024-02-28T02:53:11;3.60;99.90
10911;DHT22;5508;49.150;11.030;2024-02-28T02:56:11;3.70;99.90
10911;DHT22;5508;49.150;11.030;2024-02-28T02:59:12;3.60;99.90
10911;DHT22;5508;49.150;11.030;2024-02-28T03:02:13;3.70;99.90
10911;DHT22;5508;49.150;11.030;2024-02-28T03:05:13;3.70;99.90
10911;DHT22;5508;49.150;11.030;2024-02-28T03:08:15;3.60;99.90
10911;DHT22;5508;49.150;11.030;2024-02-28T03:11:15;3.60;99.90
10911;DHT22;5508;49.150;11.030;2024-02-28T03:14:16;3.60;99.90
10911;DHT22;5508;49.150;11.030;2024-02-28T03:17:17;3.70;99.90
10911;DHT22;5508;49.150;11.030;2024-02-28T03:20:17;3.60;99.90
10911;DHT22;5508;49.150;11.030;2024-02-28T03:23:18;3.60;99.90
10911;DHT22;5508;49.150;11.030;2024-02-28T03:26:18;3.60;99.90
10911;DHT22;5508;49.150;11.030;2024-02-28T03:29:19;3.60;99.90
10911;DHT22;5508;49.150;11.030;2024-02-28T03:32:19;3.60;99.90
10911;DHT22;5508;49.150;11.030;2024-02-28T03:35:20;3.60;99.90
10911;DHT22;5508;49.150;11.030;2024-02-28T03:38:21;3.70;99.90
10911;DHT22;5508;49.150;11.030;2024-02-28T03:41:22;3.70;99.90
10911;DHT22;5508;49.150;11.030;2024-02-28T03:44:22;3.70;99.90
10911;DHT22;5508;49.150;11.030;2024-02-28T03:47:23;3.70;99.90
10911;DHT22;5508;49.150;11.030;2024-02-28T03:50:24;3.70;99.90
10911;DHT22;5508;49.150;11.030;2024-02-28T03:53:25;3.70;99.90
10911;DHT22;5508;49.150;11.030;2024-02-28T03:56:26;3.70;99.90
10911;DHT22;5508;49.150;11.030;2024-02-28T03:59:26;3.70;99.90
10911;DHT22;5508;49.150;11.030;2024-02-28T04:02:27;3.70;99.90
10911;DHT22;5508;49.150;11.030;2024-02-28T04:05:27;3.70;99.90
10911;DHT22;5508;49.150;11.030;2024-02-28T04:08:28;3.70;99.90
10911;DHT22;5508;49.150;11.030;2024-02-28T04:11:29;3.70;99.90
10911;DHT22;5508;49.150;11.030;2024-02-28T04:14:29;3.70;99.90
10911;DHT22;5508;49.150;11.030;2024-02-28T04:17:30;3.60;99.90
10911;DHT22;5508;49.150;11.030;2024-02-28T04:20:30;3.60;99.90
10911;DHT22;5508;49.150;11.030;2024-02-28T04:23:31;3.60;99.90
10911;DHT22;5508;49.150;11.030;2024-02-28T04:26:31;3.60;99.90
10911;DHT22;5508;49.150;11.030;2024-02-28T04:29:32;3.60;99.90
10911;DHT22;5508;49.150;11.030;2024-02-28T04:32:33;3.60;99.90
10911;DHT22;5508;49.150;11.030;2024-02-28T04:35:33;3.50;99.90
10911;DHT22;5508;49.150;11.030;2024-02-28T04:38:34;3.50;99.90
10911;DHT22;5508;49.150;11.030;2024-02-28T04:41:34;3.50;99.90
10911;DHT22;5508;49.150;11.030;2024-02-28T04:44:35;3.50;99.90
10911;DHT22;5508;49.150;11.030;2024-02-28T04:47:37;3.50;99.90
10911;DHT22;5508;49.150;11.030;2024-02-28T04:50:38;3.50;99.90
10911;DHT22;5508;49.150;11.030;2024-02-28T04:53:39;3.50;99.90
10911;DHT22;5508;49.150;11.030;2024-02-28T04:56:43;3.50;99.90
10911;DHT22;5508;49.150;11.030;2024-02-28T04:59:44;3.50;99.90
10911;DHT22;5508;49.150;11.030;2024-02-28T05:02:45;3.50;99.90
10911;DHT22;5508;49.150;11.030;2024-02-28T05:05:46;3.50;99.90
10911;DHT22;5508;49.150;11.030;2024-02-28T05:08:46;3.40;99.90
10911;DHT22;5508;49.150;11.030;2024-02-28T05:11:47;3.40;99.90
10911;DHT22;5508;49.150;11.030;2024-02-28T05:14:47;3.40;99.90
10911;DHT22;5508;49.150;11.030;2024-02-28T05:17:50;3.50;99.90
10911;DHT22;5508;49.150;11.030;2024-02-28T05:20:52;3.40;99.90
10911;DHT22;5508;49.150;11.030;2024-02-28T05:23:52;3.50;99.90
10911;DHT22;5508;49.150;11.030;2024-02-28T05:26:53;3.40;99.90
10911;DHT22;5508;49.150;11.030;2024-02-28T05:29:53;3.40;99.90
10911;DHT22;5508;49.150;11.030;2024-02-28T05:32:54;3.40;99.90
10911;DHT22;5508;49.150;11.030;2024-02-28T05:35:55;3.40;99.90
10911;DHT22;5508;49.150;11.030;2024-02-28T05:38:57;3.50;99.90
10911;DHT22;5508;49.150;11.030;2024-02-28T05:41:57;3.40;99.90
10911;DHT22;5508;49.150;11.030;2024-02-28T05:44:58;3.40;99.90
10911;DHT22;5508;49.150;11.030;2024-02-28T05:47:58;3.40;99.90
10911;DHT22;5508;49.150;11.030;2024-02-28T05:51:03;3.40;99.90
10911;DHT22;5508;49.150;11.030;2024-02-28T05:54:03;3.30;99.90
10911;DHT22;5508;49.150;11.030;2024-02-28T05:57:04;3.40;99.90
10911;DHT22;5508;49.150;11.030;2024-02-28T06:00:05;3.40;99.90
10911;DHT22;5508;49.150;11.030;2024-02-28T06:03:10;3.40;99.90
10911;DHT22;5508;49.150;11.030;2024-02-28T06:06:10;3.40;99.90
10911;DHT22;5508;49.150;11.030;2024-02-28T06:09:11;3.40;99.90
10911;DHT22;5508;49.150;11.030;2024-02-28T06:12:11;3.40;99.90
10911;DHT22;5508;49.150;11.030;2024-02-28T06:15:12;3.40;99.90
10911;DHT22;5508;49.150;11.030;2024-02-28T06:18:13;3.40;99.90
10911;DHT22;5508;49.150;11.030;2024-02-28T06:21:13;3.40;99.90
10911;DHT22;5508;49.150;11.030;2024-02-28T06:24:14;3.40;99.90
10911;DHT22;5508;49.150;11.030;2024-02-28T06:27:15;3.40;99.90
10911;DHT22;5508;49.150;11.030;2024-02-28T06:30:17;3.40;99.90
10911;DHT22;5508;49.150;11.030;2024-02-28T06:33:17;3.40;99.90
10911;DHT22;5508;49.150;11.030;2024-02-28T06:36:19;3.40;99.90
10911;DHT22;5508;49.150;11.030;2024-02-28T06:39:19;3.50;99.90
10911;DHT22;5508;49.150;11.030;2024-02-28T06:42:20;3.50;99.90
10911;DHT22;5508;49.150;11.030;2024-02-28T06:45:20;3.60;99.90
10911;DHT22;5508;49.150;11.030;2024-02-28T06:48:21;3.50;99.90
10911;DHT22;5508;49.150;11.030;2024-02-28T06:51:21;3.50;99.90
10911;DHT22;5508;49.150;11.030;2024-02-28T06:54:22;3.60;99.90
10911;DHT22;5508;49.150;11.030;2024-02-28T06:57:23;3.60;99.90
10911;DHT22;5508;49.150;11.030;2024-02-28T07:00:23;3.60;99.90
10911;DHT22;5508;49.150;11.030;2024-02-28T07:03:25;3.60;99.90
10911;DHT22;5508;49.150;11.030;2024-02-28T07:06:25;3.70;99.90
10911;DHT22;5508;49.150;11.030;2024-02-28T07:09:26;3.60;99.90
10911;DHT22;5508;49.150;11.030;2024-02-28T07:12:30;3.70;99.90
10911;DHT22;5508;49.150;11.030;2024-02-28T07:15:31;3.70;99.90
10911;DHT22;5508;49.150;11.030;2024-02-28T07:18:31;3.70;99.90
10911;DHT22;5508;49.150;11.030;2024-02-28T07:21:32;3.60;99.90
10911;DHT22;5508;49.150;11.030;2024-02-28T07:24:33;3.60;99.90
10911;DHT22;5508;49.150;11.030;2024-02-28T07:27:34;3.70;99.90
10911;DHT22;5508;49.150;11.030;2024-02-28T07:30:34;3.60;99.90
10911;DHT22;5508;49.150;11.030;2024-02-28T07:33:36;3.70;99.90
10911;DHT22;5508;49.150;11.030;2024-02-28T07:36:36;3.70;99.90
10911;DHT22;5508;49.150;11.030;2024-02-28T07:39:37;3.70;99.90
10911;DHT22;5508;49.150;11.030;2024-02-28T07:42:38;3.80;99.90
10911;DHT22;5508;49.150;11.030;2024-02-28T07:45:39;3.80;99.90
10911;DHT22;5508;49.150;11.030;2024-02-28T07:48:40;3.80;99.90
10911;DHT22;5508;49.150;11.030;2024-02-28T07:51:41;3.80;99.90
10911;DHT22;5508;49.150;11.030;2024-02-28T07:54:42;3.70;99.90
10911;DHT22;5508;49.150;11.030;2024-02-28T07:57:45;3.80;99.90
10911;DHT22;5508;49.150;11.030;2024-02-28T08:00:46;3.70;99.90
10911;DHT22;5508;49.150;11.030;2024-02-28T08:03:47;3.80;99.90
10911;DHT22;5508;49.150;11.030;2024-02-28T08:06:47;3.80;99.90
10911;DHT22;5508;49.150;11.030;2024-02-28T08:09:48;3.90;99.90
10911;DHT22;5508;49.150;11.030;2024-02-28T08:12:48;3.90;99.90
10911;DHT22;5508;49.150;11.030;2024-02-28T08:15:49;3.90;99.90
10911;DHT22;5508;49.150;11.030;2024-02-28T08:18:49;3.90;99.90
10911;DHT22;5508;49.150;11.030;2024-02-28T08:21:50;3.90;99.90
10911;DHT22;5508;49.150;11.030;2024-02-28T08:24:51;4.00;99.90
10911;DHT22;5508;49.150;11.030;2024-02-28T08:27:52;4.00;99.90
10911;DHT22;5508;49.150;11.030;2024-02-28T08:30:53;4.10;99.90
10911;DHT22;5508;49.150;11.030;2024-02-28T08:33:53;4.10;99.90
10911;DHT22;5508;49.150;11.030;2024-02-28T08:36:55;4.20;99.90
10911;DHT22;5508;49.150;11.030;2024-02-28T08:39:56;4.20;99.90
10911;DHT22;5508;49.150;11.030;2024-02-28T08:43:00;4.30;99.90
10911;DHT22;5508;49.150;11.030;2024-02-28T08:46:00;4.30;99.90
10911;DHT22;5508;49.150;11.030;2024-02-28T08:49:01;4.30;99.90
10911;DHT22;5508;49.150;11.030;2024-02-28T08:52:01;4.30;99.90
10911;DHT22;5508;49.150;11.030;2024-02-28T08:55:03;4.20;99.90
10911;DHT22;5508;49.150;11.030;2024-02-28T08:58:04;4.20;99.90
10911;DHT22;5508;49.150;11.030;2024-02-28T09:01:05;4.30;99.90
10911;DHT22;5508;49.150;11.030;2024-02-28T09:04:06;4.40;99.90
10911;DHT22;5508;49.150;11.030;2024-02-28T09:07:06;4.40;99.90
10911;DHT22;5508;49.150;11.030;2024-02-28T09:10:07;4.50;99.90
10911;DHT22;5508;49.150;11.030;2024-02-28T09:13:08;4.60;99.90
10911;DHT22;5508;49.150;11.030;2024-02-28T09:16:10;4.70;99.90
10911;DHT22;5508;49.150;11.030;2024-02-28T09:19:11;4.60;99.90
10911;DHT22;5508;49.150;11.030;2024-02-28T09:22:11;4.50;99.90
10911;DHT22;5508;49.150;11.030;2024-02-28T09:25:12;4.40;99.90
10911;DHT22;5508;49.150;11.030;2024-02-28T09:28:13;4.40;99.90
10911;DHT22;5508;49.150;11.030;2024-02-28T09:31:17;4.40;99.90
10911;DHT22;5508;49.150;11.030;2024-02-28T09:34:18;4.50;99.90
10911;DHT22;5508;49.150;11.030;2024-02-28T09:37:18;4.50;99.90
10911;DHT22;5508;49.150;11.030;2024-02-28T09:40:21;4.50;99.90
10911;DHT22;5508;49.150;11.030;2024-02-28T09:43:29;4.60;99.90
10911;DHT22;5508;49.150;11.030;2024-02-28T09:46:33;4.50;99.90
10911;DHT22;5508;49.150;11.030;2024-02-28T09:49:35;4.60;99.90
10911;DHT22;5508;49.150;11.030;2024-02-28T09:52:37;4.70;99.90
10911;DHT22;5508;49.150;11.030;2024-02-28T09:55:38;4.80;99.90
10911;DHT22;5508;49.150;11.030;2024-02-28T09:58:39;4.90;99.90
10911;DHT22;5508;49.150;11.030;2024-02-28T10:01:43;4.90;99.90
10911;DHT22;5508;49.150;11.030;2024-02-28T10:04:44;4.90;99.90
10911;DHT22;5508;49.150;11.030;2024-02-28T10:07:46;4.90;99.90
10911;DHT22;5508;49.150;11.030;2024-02-28T10:10:48;4.90;99.90
10911;DHT22;5508;49.150;11.030;2024-02-28T10:13:49;4.90;99.90
10911;DHT22;5508;49.150;11.030;2024-02-28T10:16:50;5.10;99.70
10911;DHT22;5508;49.150;11.030;2024-02-28T10:19:53;5.10;99.90
10911;DHT22;5508;49.150;11.030;2024-02-28T10:22:53;5.20;98.30
10911;DHT22;5508;49.150;11.030;2024-02-28T10:25:54;5.20;98.30
10911;DHT22;5508;49.150;11.030;2024-02-28T10:28:54;5.20;99.70
10911;DHT22;5508;49.150;11.030;2024-02-28T10:31:55;5.10;99.90
10911;DHT22;5508;49.150;11.030;2024-02-28T10:34:56;5.00;99.90
10911;DHT22;5508;49.150;11.030;2024-02-28T10:37:58;5.10;99.90
10911;DHT22;5508;49.150;11.030;2024-02-28T10:41:02;5.10;99.40
10911;DHT22;5508;49.150;11.030;2024-02-28T10:44:03;5.00;99.90
10911;DHT22;5508;49.150;11.030;2024-02-28T10:47:04;4.80;99.90
10911;DHT22;5508;49.150;11.030;2024-02-28T10:50:06;4.90;99.90
10911;DHT22;5508;49.150;11.030;2024-02-28T10:53:14;4.80;99.90
10911;DHT22;5508;49.150;11.030;2024-02-28T10:56:19;4.90;99.90
10911;DHT22;5508;49.150;11.030;2024-02-28T10:59:21;5.00;99.70
10911;DHT22;5508;49.150;11.030;2024-02-28T11:02:24;5.10;98.50
10911;DHT22;5508;49.150;11.030;2024-02-28T11:05:55;5.10;97.30
10911;DHT22;5508;49.150;11.030;2024-02-28T11:08:59;5.00;97.90
10911;DHT22;5508;49.150;11.030;2024-02-28T11:12:00;5.00;98.70
10911;DHT22;5508;49.150;11.030;2024-02-28T11:15:02;5.10;99.20
10911;DHT22;5508;49.150;11.030;2024-02-28T11:18:12;5.20;97.80
10911;DHT22;5508;49.150;11.030;2024-02-28T11:21:16;5.30;97.20
10911;DHT22;5508;49.150;11.030;2024-02-28T11:24:17;5.40;95.80
10911;DHT22;5508;49.150;11.030;2024-02-28T11:27:18;5.40;95.10
10911;DHT22;5508;49.150;11.030;2024-02-28T11:30:19;5.30;95.50
10911;DHT22;5508;49.150;11.030;2024-02-28T11:33:20;5.40;96.20
10911;DHT22;5508;49.150;11.030;2024-02-28T11:36:22;5.50;95.20
10911;DHT22;5508;49.150;11.030;2024-02-28T11:39:22;5.50;94.50
10911;DHT22;5508;49.150;11.030;2024-02-28T11:42:25;5.50;95.20
10911;DHT22;5508;49.150;11.030;2024-02-28T11:45:25;5.50;94.60
10911;DHT22;5508;49.150;11.030;2024-02-28T11:48:26;5.40;94.50
10911;DHT22;5508;49.150;11.030;2024-02-28T11:51:28;5.30;96.60
10911;DHT22;5508;49.150;11.030;2024-02-28T11:54:29;5.20;95.70
10911;DHT22;5508;49.150;11.030;2024-02-28T11:57:30;5.10;96.20
10911;DHT22;5508;49.150;11.030;2024-02-28T12:00:34;5.20;97.20
10911;DHT22;5508;49.150;11.030;2024-02-28T12:03:34;5.20;97.10
10911;DHT22;5508;49.150;11.030;2024-02-28T12:06:36;5.10;95.50
10911;DHT22;5508;49.150;11.030;2024-02-28T12:09:37;5.20;95.40
10911;DHT22;5508;49.150;11.030;2024-02-28T12:12:39;5.10;95.90
10911;DHT22;5508;49.150;11.030;2024-02-28T12:15:39;5.20;96.20
10911;DHT22;5508;49.150;11.030;2024-02-28T12:18:41;5.20;95.20
10911;DHT22;5508;49.150;11.030;2024-02-28T12:21:42;5.20;95.10
10911;DHT22;5508;49.150;11.030;2024-02-28T12:24:42;5.20;95.90
10911;DHT22;5508;49.150;11.030;2024-02-28T12:27:43;5.20;95.90
10911;DHT22;5508;49.150;11.030;2024-02-28T12:30:44;5.00;96.50
10911;DHT22;5508;49.150;11.030;2024-02-28T12:33:44;5.10;95.80
10911;DHT22;5508;49.150;11.030;2024-02-28T12:36:45;5.10;96.10
10911;DHT22;5508;49.150;11.030;2024-02-28T12:39:45;5.00;96.20
10911;DHT22;5508;49.150;11.030;2024-02-28T12:42:48;5.20;96.60
10911;DHT22;5508;49.150;11.030;2024-02-28T12:45:48;5.20;95.60
10911;DHT22;5508;49.150;11.030;2024-02-28T12:48:49;5.30;94.00
10911;DHT22;5508;49.150;11.030;2024-02-28T12:51:50;5.30;92.60
10911;DHT22;5508;49.150;11.030;2024-02-28T12:54:51;5.30;92.90
10911;DHT22;5508;49.150;11.030;2024-02-28T12:57:52;5.40;93.60
10911;DHT22;5508;49.150;11.030;2024-02-28T13:00:53;5.50;92.90
10911;DHT22;5508;49.150;11.030;2024-02-28T13:03:54;5.40;91.90
10911;DHT22;5508;49.150;11.030;2024-02-28T13:06:54;5.60;92.90
10911;DHT22;5508;49.150;11.030;2024-02-28T13:09:55;5.60;90.20
10911;DHT22;5508;49.150;11.030;2024-02-28T13:12:56;5.60;90.60
10911;DHT22;5508;49.150;11.030;2024-02-28T13:15:56;5.50;91.50
10911;DHT22;5508;49.150;11.030;2024-02-28T13:18:57;5.40;92.30
10911;DHT22;5508;49.150;11.030;2024-02-28T13:21:57;5.40;91.40
10911;DHT22;5508;49.150;11.030;2024-02-28T13:24:58;5.40;91.80
10911;DHT22;5508;49.150;11.030;2024-02-28T13:27:59;5.40;91.90
10911;DHT22;5508;49.150;11.030;2024-02-28T13:31:00;5.40;91.30
10911;DHT22;5508;49.150;11.030;2024-02-28T13:34:01;5.40;92.30
10911;DHT22;5508;49.150;11.030;2024-02-28T13:37:03;5.40;92.00
10911;DHT22;5508;49.150;11.030;2024-02-28T13:40:04;5.50;92.30
10911;DHT22;5508;49.150;11.030;2024-02-28T13:43:05;5.50;91.00
10911;DHT22;5508;49.150;11.030;2024-02-28T13:46:06;5.50;90.60
10911;DHT22;5508;49.150;11.030;2024-02-28T13:49:06;5.60;91.70
10911;DHT22;5508;49.150;11.030;2024-02-28T13:52:08;5.70;89.90
10911;DHT22;5508;49.150;11.030;2024-02-28T13:55:08;5.70;91.20
10911;DHT22;5508;49.150;11.030;2024-02-28T13:58:11;5.70;91.30
10911;DHT22;5508;49.150;11.030;2024-02-28T14:01:12;5.70;90.20
10911;DHT22;5508;49.150;11.030;2024-02-28T14:04:12;5.70;89.40
10911;DHT22;5508;49.150;11.030;2024-02-28T14:07:13;5.60;89.60
10911;DHT22;5508;49.150;11.030;2024-02-28T14:10:14;5.60;91.70
10911;DHT22;5508;49.150;11.030;2024-02-28T14:13:16;5.40;92.50
10911;DHT22;5508;49.150;11.030;2024-02-28T14:16:18;5.40;92.90
10911;DHT22;5508;49.150;11.030;2024-02-28T14:19:20;5.50;90.80
10911;DHT22;5508;49.150;11.030;2024-02-28T14:22:20;5.50;92.00
10911;DHT22;5508;49.150;11.030;2024-02-28T14:25:21;5.50;91.40
10911;DHT22;5508;49.150;11.030;2024-02-28T14:28:21;5.50;90.40
10911;DHT22;5508;49.150;11.030;2024-02-28T14:31:22;5.50;90.20
10911;DHT22;5508;49.150;11.030;2024-02-28T14:34:24;5.50;90.00
10911;DHT22;5508;49.150;11.030;2024-02-28T14:37:25;5.50;91.80
10911;DHT22;5508;49.150;11.030;2024-02-28T14:40:26;5.60;90.70
10911;DHT22;5508;49.150;11.030;2024-02-28T14:43:26;5.60;90.90
10911;DHT22;5508;49.150;11.030;2024-02-28T14:46:32;5.60;92.10
10911;DHT22;5508;49.150;11.030;2024-02-28T14:49:33;5.60;90.70
10911;DHT22;5508;49.150;11.030;2024-02-28T14:52:33;5.70;92.30
10911;DHT22;5508;49.150;11.030;2024-02-28T14:55:34;5.80;90.20
10911;DHT22;5508;49.150;11.030;2024-02-28T14:58:35;5.80;91.00
10911;DHT22;5508;49.150;11.030;2024-02-28T15:01:38;5.90;90.00
10911;DHT22;5508;49.150;11.030;2024-02-28T15:04:38;5.90;91.50
10911;DHT22;5508;49.150;11.030;2024-02-28T15:07:39;6.00;91.40
10911;DHT22;5508;49.150;11.030;2024-02-28T15:10:40;6.00;90.20
10911;DHT22;5508;49.150;11.030;2024-02-28T15:13:40;6.10;91.00
10911;DHT22;5508;49.150;11.030;2024-02-28T15:16:41;6.10;88.80
10911;DHT22;5508;49.150;11.030;2024-02-28T15:19:42;6.00;90.40
10911;DHT22;5508;49.150;11.030;2024-02-28T15:22:42;6.00;91.70
10911;DHT22;5508;49.150;11.030;2024-02-28T15:25:45;6.00;91.70
10911;DHT22;5508;49.150;11.030;2024-02-28T15:28:47;6.00;88.70
10911;DHT22;5508;49.150;11.030;2024-02-28T15:31:48;6.10;89.50
10911;DHT22;5508;49.150;11.030;2024-02-28T15:34:49;6.10;88.30
10911;DHT22;5508;49.150;11.030;2024-02-28T15:37:49;6.00;89.00
10911;DHT22;5508;49.150;11.030;2024-02-28T15:40:50;6.00;89.80
10911;DHT22;5508;49.150;11.030;2024-02-28T15:43:50;5.90;91.30
10911;DHT22;5508;49.150;11.030;2024-02-28T15:46:51;5.90;92.10
10911;DHT22;5508;49.150;11.030;2024-02-28T15:49:51;5.70;92.20
10911;DHT22;5508;49.150;11.030;2024-02-28T15:52:52;5.60;92.50
10911;DHT22;5508;49.150;11.030;2024-02-28T15:55:54;5.50;93.30
10911;DHT22;5508;49.150;11.030;2024-02-28T15:58:54;5.50;93.40
10911;DHT22;5508;49.150;11.030;2024-02-28T16:01:55;5.40;93.40
10911;DHT22;5508;49.150;11.030;2024-02-28T16:04:56;5.40;93.50
10911;DHT22;5508;49.150;11.030;2024-02-28T16:07:57;5.30;94.10
10911;DHT22;5508;49.150;11.030;2024-02-28T16:10:58;5.20;94.60
10911;DHT22;5508;49.150;11.030;2024-02-28T16:13:59;5.20;96.10
10911;DHT22;5508;49.150;11.030;2024-02-28T16:17:00;5.20;95.50
10911;DHT22;5508;49.150;11.030;2024-02-28T16:20:01;5.20;96.10
10911;DHT22;5508;49.150;11.030;2024-02-28T16:23:02;5.20;95.10
10911;DHT22;5508;49.150;11.030;2024-02-28T16:26:03;5.20;95.60
10911;DHT22;5508;49.150;11.030;2024-02-28T16:29:04;5.30;94.60
10911;DHT22;5508;49.150;11.030;2024-02-28T16:32:04;5.20;95.50
10911;DHT22;5508;49.150;11.030;2024-02-28T16:35:06;5.10;96.20
10911;DHT22;5508;49.150;11.030;2024-02-28T16:38:06;5.00;96.00
10911;DHT22;5508;49.150;11.030;2024-02-28T16:41:08;5.00;96.30
10911;DHT22;5508;49.150;11.030;2024-02-28T16:44:08;4.90;97.00
10911;DHT22;5508;49.150;11.030;2024-02-28T16:47:09;4.90;98.30
10911;DHT22;5508;49.150;11.030;2024-02-28T16:50:10;4.90;98.20
10911;DHT22;5508;49.150;11.030;2024-02-28T16:53:11;4.90;98.60
10911;DHT22;5508;49.150;11.030;2024-02-28T16:56:11;4.80;98.80
10911;DHT22;5508;49.150;11.030;2024-02-28T16:59:12;4.80;98.60
10911;DHT22;5508;49.150;11.030;2024-02-28T17:02:13;4.80;98.10
10911;DHT22;5508;49.150;11.030;2024-02-28T17:05:14;4.80;98.70
10911;DHT22;5508;49.150;11.030;2024-02-28T17:08:14;4.80;99.10
10911;DHT22;5508;49.150;11.030;2024-02-28T17:11:15;4.80;98.70
10911;DHT22;5508;49.150;11.030;2024-02-28T17:14:15;4.80;98.70
10911;DHT22;5508;49.150;11.030;2024-02-28T17:17:16;4.80;98.50
10911;DHT22;5508;49.150;11.030;2024-02-28T17:20:20;4.80;98.40
10911;DHT22;5508;49.150;11.030;2024-02-28T17:23:20;4.80;98.70
10911;DHT22;5508;49.150;11.030;2024-02-28T17:26:21;4.70;98.80
10911;DHT22;5508;49.150;11.030;2024-02-28T17:29:21;4.70;99.00
10911;DHT22;5508;49.150;11.030;2024-02-28T17:32:22;4.70;99.20
10911;DHT22;5508;49.150;11.030;2024-02-28T17:35:23;4.70;99.00
10911;DHT22;5508;49.150;11.030;2024-02-28T17:38:24;4.70;99.10
10911;DHT22;5508;49.150;11.030;2024-02-28T17:41:24;4.70;98.90
10911;DHT22;5508;49.150;11.030;2024-02-28T17:44:25;4.70;98.70
10911;DHT22;5508;49.150;11.030;2024-02-28T17:47:25;4.70;98.40
10911;DHT22;5508;49.150;11.030;2024-02-28T17:50:26;4.60;98.70
10911;DHT22;5508;49.150;11.030;2024-02-28T17:53:27;4.80;98.50
10911;DHT22;5508;49.150;11.030;2024-02-28T17:56:28;4.70;99.70
10911;DHT22;5508;49.150;11.030;2024-02-28T17:59:28;4.70;98.70
10911;DHT22;5508;49.150;11.030;2024-02-28T18:02:29;4.70;98.90
10911;DHT22;5508;49.150;11.030;2024-02-28T18:05:30;4.70;98.80
10911;DHT22;5508;49.150;11.030;2024-02-28T18:08:30;4.70;98.80
10911;DHT22;5508;49.150;11.030;2024-02-28T18:11:32;4.70;98.50
10911;DHT22;5508;49.150;11.030;2024-02-28T18:14:33;4.60;98.50
10911;DHT22;5508;49.150;11.030;2024-02-28T18:17:34;4.60;99.00
10911;DHT22;5508;49.150;11.030;2024-02-28T18:20:35;4.60;99.70
10911;DHT22;5508;49.150;11.030;2024-02-28T18:23:36;4.50;99.10
10911;DHT22;5508;49.150;11.030;2024-02-28T18:26:36;4.60;99.50
10911;DHT22;5508;49.150;11.030;2024-02-28T18:29:37;4.60;98.50
10911;DHT22;5508;49.150;11.030;2024-02-28T18:32:39;4.60;99.10
10911;DHT22;5508;49.150;11.030;2024-02-28T18:35:40;4.60;99.90
10911;DHT22;5508;49.150;11.030;2024-02-28T18:38:41;4.60;99.90
10911;DHT22;5508;49.150;11.030;2024-02-28T18:41:42;4.50;99.90
10911;DHT22;5508;49.150;11.030;2024-02-28T18:44:43;4.50;99.20
10911;DHT22;5508;49.150;11.030;2024-02-28T18:47:44;4.50;99.10
10911;DHT22;5508;49.150;11.030;2024-02-28T18:50:44;4.60;99.10
10911;DHT22;5508;49.150;11.030;2024-02-28T18:53:45;4.50;98.90
10911;DHT22;5508;49.150;11.030;2024-02-28T18:56:45;4.50;98.50
10911;DHT22;5508;49.150;11.030;2024-02-28T18:59:46;4.50;98.70
10911;DHT22;5508;49.150;11.030;2024-02-28T19:02:48;4.50;98.90
10911;DHT22;5508;49.150;11.030;2024-02-28T19:05:49;4.40;99.00
10911;DHT22;5508;49.150;11.030;2024-02-28T19:08:50;4.40;98.90
10911;DHT22;5508;49.150;11.030;2024-02-28T19:11:52;4.50;99.10
10911;DHT22;5508;49.150;11.030;2024-02-28T19:14:53;4.50;97.90
10911;DHT22;5508;49.150;11.030;2024-02-28T19:17:53;4.50;98.60
10911;DHT22;5508;49.150;11.030;2024-02-28T19:20:54;4.40;98.10